createdAt,value
2017-04-12T00:00:29.124Z,925.7
2017-04-12T00:01:48.767Z,925.72
2017-04-12T00:03:08.529Z,925.71
2017-04-12T00:04:25.324Z,925.74
2017-04-12T00:05:39.071Z,925.73
2017-04-12T00:06:59.479Z,925.74
2017-04-12T00:08:12.719Z,925.76
2017-04-12T00:09:25.929Z,925.75
2017-04-12T00:10:42.756Z,925.77
2017-04-12T00:11:57.201Z,925.74
2017-04-12T00:13:16.931Z,925.73
2017-04-12T00:14:30.791Z,925.73
2017-04-12T00:15:45.246Z,925.79
2017-04-12T00:17:02.025Z,925.76
2017-04-12T00:18:24.041Z,925.78
2017-04-12T00:19:43.195Z,925.79
2017-04-12T00:21:00.572Z,925.84
2017-04-12T00:22:23.251Z,925.88
2017-04-12T00:23:45.327Z,925.84
2017-04-12T00:25:02.744Z,925.89
2017-04-12T00:26:19.515Z,925.91
2017-04-12T00:27:47.458Z,925.93
2017-04-12T00:29:00.685Z,926.01
2017-04-12T00:30:15.794Z,925.98
2017-04-12T00:31:29.132Z,926.04
2017-04-12T00:32:42.978Z,926.04
2017-04-12T00:33:59.681Z,926.08
2017-04-12T00:35:17.102Z,926.03
2017-04-12T00:36:31.561Z,926.06
2017-04-12T00:37:50.679Z,926.08
2017-04-12T00:39:03.943Z,926.12
2017-04-12T00:40:17.815Z,926.1
2017-04-12T00:41:37.560Z,926.17
2017-04-12T00:42:54.377Z,926.16
2017-04-12T00:44:11.742Z,926.17
2017-04-12T00:45:24.512Z,926.2
2017-04-12T00:46:38.406Z,926.2
2017-04-12T00:47:51.522Z,926.23
2017-04-12T00:49:05.925Z,926.24
2017-04-12T00:50:22.687Z,926.21
2017-04-12T00:51:38.844Z,926.23
2017-04-12T00:52:55.679Z,926.18
2017-04-12T00:54:12.477Z,926.16
2017-04-12T00:55:26.312Z,926.13
2017-04-12T00:56:41.382Z,926.16
2017-04-12T00:57:58.179Z,926.17
2017-04-12T00:59:11.504Z,926.23
2017-04-12T01:00:31.207Z,926.17
2017-04-12T01:01:44.931Z,926.17
2017-04-12T01:03:07.620Z,926.13
2017-04-12T01:04:23.806Z,926.12
2017-04-12T01:05:37.659Z,926.08
2017-04-12T01:06:52.738Z,926.11
2017-04-12T01:08:09.505Z,926.12
2017-04-12T01:09:23.340Z,926.13
2017-04-12T01:10:37.214Z,926.14
2017-04-12T01:11:51.098Z,926.17
2017-04-12T01:13:10.904Z,926.15
2017-04-12T01:14:28.301Z,926.13
2017-04-12T01:15:47.481Z,926.13
2017-04-12T01:17:04.290Z,926.19
2017-04-12T01:18:20.589Z,926.14
2017-04-12T01:19:37.394Z,926.16
2017-04-12T01:20:54.882Z,926.2
2017-04-12T01:22:12.287Z,926.17
2017-04-12T01:23:32.014Z,926.21
2017-04-12T01:24:45.882Z,926.23
2017-04-12T01:26:06.234Z,926.25
2017-04-12T01:27:20.085Z,926.29
2017-04-12T01:28:42.763Z,926.27
2017-04-12T01:30:00.129Z,926.28
2017-04-12T01:31:18.602Z,926.26
2017-04-12T01:32:38.320Z,926.21
2017-04-12T01:33:51.556Z,926.22
2017-04-12T01:35:08.352Z,926.18
2017-04-12T01:36:22.161Z,926.19
2017-04-12T01:37:41.383Z,926.19
2017-04-12T01:38:56.390Z,926.21
2017-04-12T01:40:10.235Z,926.18
2017-04-12T01:41:23.583Z,926.17
2017-04-12T01:42:43.934Z,926.15
2017-04-12T01:44:02.938Z,926.14
2017-04-12T01:45:16.344Z,926.13
2017-04-12T01:46:29.729Z,926.14
2017-04-12T01:47:42.959Z,926.16
2017-04-12T01:49:01.719Z,926.18
2017-04-12T01:50:16.131Z,926.22
2017-04-12T01:51:32.938Z,926.23
2017-04-12T01:52:50.283Z,926.23
2017-04-12T01:54:07.027Z,926.19
2017-04-12T01:55:19.758Z,926.24
2017-04-12T01:56:42.332Z,926.29
2017-04-12T01:57:55.557Z,926.29
2017-04-12T01:59:10.006Z,926.31
2017-04-12T02:00:25.665Z,926.31
2017-04-12T02:01:40.103Z,926.31
2017-04-12T02:02:57.471Z,926.29
2017-04-12T02:04:11.439Z,926.32
2017-04-12T02:05:28.242Z,926.3
2017-04-12T02:06:42.063Z,926.28
2017-04-12T02:08:02.455Z,926.3
2017-04-12T02:09:24.573Z,926.3
2017-04-12T02:10:44.273Z,926.23
2017-04-12T02:11:57.585Z,926.25
2017-04-12T02:13:13.864Z,926.19
2017-04-12T02:14:30.678Z,926.18
2017-04-12T02:15:53.363Z,926.13
2017-04-12T02:17:12.586Z,926.15
2017-04-12T02:18:26.404Z,926.19
2017-04-12T02:19:43.860Z,926.22
2017-04-12T02:20:57.694Z,926.23
2017-04-12T02:22:17.364Z,926.23
2017-04-12T02:23:31.809Z,926.22
2017-04-12T02:24:46.298Z,926.22
2017-04-12T02:26:03.086Z,926.26
2017-04-12T02:27:20.482Z,926.27
2017-04-12T02:28:43.147Z,926.17
2017-04-12T02:29:59.966Z,926.22
2017-04-12T02:31:19.663Z,926.18
2017-04-12T02:32:34.057Z,926.2
2017-04-12T02:33:51.359Z,926.21
2017-04-12T02:35:04.673Z,926.19
2017-04-12T02:36:19.127Z,926.18
2017-04-12T02:37:36.485Z,926.16
2017-04-12T02:38:49.809Z,926.1
2017-04-12T02:40:03.068Z,926.04
2017-04-12T02:41:22.194Z,926.09
2017-04-12T02:42:38.264Z,926
2017-04-12T02:43:52.797Z,926.01
2017-04-12T02:45:05.539Z,926.05
2017-04-12T02:46:22.318Z,926
2017-04-12T02:47:42.063Z,926.04
2017-04-12T02:48:58.805Z,926
2017-04-12T02:50:13.199Z,925.95
2017-04-12T02:51:29.370Z,925.96
2017-04-12T02:52:42.135Z,925.96
2017-04-12T02:53:55.470Z,925.96
2017-04-12T02:55:09.307Z,925.93
2017-04-12T02:56:23.018Z,925.9
2017-04-12T02:57:40.392Z,925.92
2017-04-12T02:58:57.171Z,925.82
2017-04-12T03:00:14.554Z,925.82
2017-04-12T03:01:27.203Z,925.84
2017-04-12T03:02:41.043Z,925.86
2017-04-12T03:04:00.758Z,925.85
2017-04-12T03:05:13.963Z,925.85
2017-04-12T03:06:30.810Z,925.8
2017-04-12T03:07:48.159Z,925.84
2017-04-12T03:09:07.844Z,925.85
2017-04-12T03:10:21.653Z,925.85
2017-04-12T03:11:47.326Z,925.81
2017-04-12T03:13:00.569Z,925.83
2017-04-12T03:14:14.440Z,925.86
2017-04-12T03:15:31.238Z,925.85
2017-04-12T03:16:48.069Z,925.82
2017-04-12T03:18:02.612Z,925.81
2017-04-12T03:19:18.903Z,925.83
2017-04-12T03:20:32.045Z,925.85
2017-04-12T03:21:45.950Z,925.82
2017-04-12T03:22:59.788Z,925.78
2017-04-12T03:24:16.619Z,925.78
2017-04-12T03:25:32.914Z,925.77
2017-04-12T03:26:46.825Z,925.77
2017-04-12T03:28:00.697Z,925.74
2017-04-12T03:29:14.529Z,925.7
2017-04-12T03:30:29.596Z,925.74
2017-04-12T03:31:46.971Z,925.77
2017-04-12T03:33:03.270Z,925.75
2017-04-12T03:34:20.702Z,925.74
2017-04-12T03:35:43.344Z,925.68
2017-04-12T03:36:59.495Z,925.64
2017-04-12T03:38:12.841Z,925.64
2017-04-12T03:39:27.253Z,925.62
2017-04-12T03:40:40.486Z,925.62
2017-04-12T03:41:54.431Z,925.62
2017-04-12T03:43:14.030Z,925.55
2017-04-12T03:44:28.423Z,925.53
2017-04-12T03:45:42.891Z,925.49
2017-04-12T03:47:02.557Z,925.47
2017-04-12T03:48:15.878Z,925.43
2017-04-12T03:49:33.320Z,925.43
2017-04-12T03:50:55.387Z,925.42
2017-04-12T03:52:12.255Z,925.42
2017-04-12T03:53:29.657Z,925.4
2017-04-12T03:54:46.485Z,925.38
2017-04-12T03:56:06.120Z,925.38
2017-04-12T03:57:20.597Z,925.36
2017-04-12T03:58:40.322Z,925.37
2017-04-12T03:59:57.708Z,925.4
2017-04-12T04:01:13.963Z,925.4
2017-04-12T04:02:28.384Z,925.4
2017-04-12T04:03:47.501Z,925.38
2017-04-12T04:05:01.399Z,925.4
2017-04-12T04:06:21.099Z,925.38
2017-04-12T04:07:35.428Z,925.39
2017-04-12T04:08:52.221Z,925.38
2017-04-12T04:10:09.641Z,925.38
2017-04-12T04:11:23.555Z,925.37
2017-04-12T04:12:40.955Z,925.34
2017-04-12T04:13:54.794Z,925.38
2017-04-12T04:15:08.508Z,925.36
2017-04-12T04:16:24.839Z,925.38
2017-04-12T04:17:39.340Z,925.39
2017-04-12T04:18:56.143Z,925.38
2017-04-12T04:20:16.468Z,925.36
2017-04-12T04:21:30.854Z,925.38
2017-04-12T04:22:50.542Z,925.34
2017-04-12T04:24:07.260Z,925.36
2017-04-12T04:25:26.977Z,925.3
2017-04-12T04:26:40.860Z,925.29
2017-04-12T04:27:55.306Z,925.25
2017-04-12T04:29:15.031Z,925.27
2017-04-12T04:30:34.807Z,925.23
2017-04-12T04:31:48.695Z,925.24
2017-04-12T04:33:05.485Z,925.2
2017-04-12T04:34:21.714Z,925.23
2017-04-12T04:35:44.355Z,925.25
2017-04-12T04:37:06.278Z,925.26
2017-04-12T04:38:19.515Z,925.25
2017-04-12T04:39:33.918Z,925.29
2017-04-12T04:40:47.630Z,925.31
2017-04-12T04:42:01.457Z,925.3
2017-04-12T04:43:14.767Z,925.3
2017-04-12T04:44:28.599Z,925.31
2017-04-12T04:45:50.794Z,925.31
2017-04-12T04:47:07.609Z,925.35
2017-04-12T04:48:26.198Z,925.37
2017-04-12T04:49:46.556Z,925.33
2017-04-12T04:51:00.291Z,925.3
2017-04-12T04:52:19.431Z,925.31
2017-04-12T04:53:33.262Z,925.28
2017-04-12T04:54:47.777Z,925.29
2017-04-12T04:56:04.528Z,925.28
2017-04-12T04:57:21.314Z,925.26
2017-04-12T04:58:35.816Z,925.25
2017-04-12T04:59:49.734Z,925.32
2017-04-12T05:01:09.517Z,925.3
2017-04-12T05:02:26.904Z,925.29
2017-04-12T05:03:44.300Z,925.3
2017-04-12T05:05:00.953Z,925.35
2017-04-12T05:06:20.676Z,925.34
2017-04-12T05:07:42.739Z,925.27
2017-04-12T05:09:02.456Z,925.21
2017-04-12T05:10:16.167Z,925.21
2017-04-12T05:11:33.629Z,925.21
2017-04-12T05:12:50.464Z,925.2
2017-04-12T05:14:04.303Z,925.19
2017-04-12T05:15:24.618Z,925.21
2017-04-12T05:16:44.443Z,925.25
2017-04-12T05:17:57.699Z,925.27
2017-04-12T05:19:18.039Z,925.18
2017-04-12T05:20:34.206Z,925.16
2017-04-12T05:21:56.861Z,925.1
2017-04-12T05:23:16.591Z,925.08
2017-04-12T05:24:31.026Z,925.09
2017-04-12T05:25:50.762Z,925.08
2017-04-12T05:27:10.318Z,925.11
2017-04-12T05:28:23.659Z,925.05
2017-04-12T05:29:38.139Z,925.08
2017-04-12T05:30:55.528Z,925.1
2017-04-12T05:32:12.242Z,925.02
2017-04-12T05:33:26.218Z,925.05
2017-04-12T05:34:40.076Z,925.03
2017-04-12T05:35:56.743Z,925.03
2017-04-12T05:37:14.132Z,925.08
2017-04-12T05:38:35.717Z,925.07
2017-04-12T05:39:49.556Z,925.06
2017-04-12T05:41:06.979Z,925.03
2017-04-12T05:42:23.738Z,925.03
2017-04-12T05:43:36.953Z,925.07
2017-04-12T05:44:54.341Z,925.05
2017-04-12T05:46:08.152Z,925.07
2017-04-12T05:47:24.917Z,925.05
2017-04-12T05:48:38.739Z,925.01
2017-04-12T05:49:51.978Z,924.95
2017-04-12T05:51:05.915Z,925.02
2017-04-12T05:52:22.052Z,925
2017-04-12T05:53:35.810Z,925.03
2017-04-12T05:54:55.483Z,925.02
2017-04-12T05:56:09.925Z,925.02
2017-04-12T05:57:24.299Z,924.98
2017-04-12T05:58:38.156Z,924.98
2017-04-12T05:59:55.525Z,925.02
2017-04-12T06:01:21.118Z,924.91
2017-04-12T06:02:40.873Z,924.99
2017-04-12T06:03:57.033Z,925.02
2017-04-12T06:05:16.204Z,924.97
2017-04-12T06:06:29.502Z,925.03
2017-04-12T06:07:43.926Z,924.98
2017-04-12T06:09:00.675Z,925
2017-04-12T06:10:15.125Z,925
2017-04-12T06:11:37.799Z,925.03
2017-04-12T06:12:57.593Z,925.12
2017-04-12T06:14:11.475Z,925.03
2017-04-12T06:15:24.212Z,925.04
2017-04-12T06:16:38.050Z,925.05
2017-04-12T06:17:55.435Z,925.06
2017-04-12T06:19:12.229Z,925.03
2017-04-12T06:20:31.929Z,925.03
2017-04-12T06:21:45.843Z,925.01
2017-04-12T06:23:00.338Z,925.04
2017-04-12T06:24:17.138Z,924.92
2017-04-12T06:25:32.196Z,924.8
2017-04-12T06:26:49.577Z,924.83
2017-04-12T06:28:12.234Z,924.92
2017-04-12T06:29:34.878Z,924.92
2017-04-12T06:30:54.586Z,924.86
2017-04-12T06:32:14.313Z,924.85
2017-04-12T06:33:31.643Z,924.84
2017-04-12T06:34:53.695Z,924.86
2017-04-12T06:36:07.992Z,924.88
2017-04-12T06:37:30.616Z,924.8
2017-04-12T06:38:47.434Z,924.86
2017-04-12T06:40:02.484Z,924.87
2017-04-12T06:41:16.383Z,924.88
2017-04-12T06:42:33.199Z,924.87
2017-04-12T06:43:50.612Z,924.84
2017-04-12T06:45:05.036Z,924.83
2017-04-12T06:46:18.802Z,924.87
2017-04-12T06:47:41.459Z,924.85
2017-04-12T06:48:55.353Z,924.88
2017-04-12T06:50:09.247Z,924.87
2017-04-12T06:51:22.611Z,924.89
2017-04-12T06:52:42.343Z,924.92
2017-04-12T06:54:05.030Z,924.94
2017-04-12T06:55:27.059Z,924.93
2017-04-12T06:56:43.822Z,924.95
2017-04-12T06:58:03.557Z,924.96
2017-04-12T06:59:17.305Z,924.92
2017-04-12T07:00:31.797Z,924.94
2017-04-12T07:01:51.578Z,924.94
2017-04-12T07:03:04.919Z,924.94
2017-04-12T07:04:24.663Z,924.98
2017-04-12T07:05:49.610Z,924.94
2017-04-12T07:07:03.510Z,924.92
2017-04-12T07:08:22.703Z,924.94
2017-04-12T07:09:38.323Z,924.93
2017-04-12T07:10:55.754Z,924.94
2017-04-12T07:12:11.919Z,924.95
2017-04-12T07:13:25.754Z,924.97
2017-04-12T07:14:39.050Z,924.97
2017-04-12T07:15:53.534Z,925.03
2017-04-12T07:17:10.313Z,925.05
2017-04-12T07:18:24.793Z,925.09
2017-04-12T07:19:38.687Z,925.09
2017-04-12T07:20:52.579Z,925.07
2017-04-12T07:22:06.406Z,925.08
2017-04-12T07:23:20.117Z,925.08
2017-04-12T07:24:34.588Z,925.03
2017-04-12T07:25:49.037Z,925.07
2017-04-12T07:27:05.826Z,925.05
2017-04-12T07:28:28.548Z,925.05
2017-04-12T07:29:42.392Z,925.05
2017-04-12T07:30:59.067Z,925.08
2017-04-12T07:32:21.707Z,925.05
2017-04-12T07:33:44.400Z,925.06
2017-04-12T07:35:01.766Z,925.09
2017-04-12T07:36:18.050Z,925.08
2017-04-12T07:37:40.744Z,925.05
2017-04-12T07:38:54.516Z,925.02
2017-04-12T07:40:08.363Z,925.03
2017-04-12T07:41:22.772Z,925.04
2017-04-12T07:42:40.133Z,925.03
2017-04-12T07:43:53.489Z,925.05
2017-04-12T07:45:07.995Z,925.07
2017-04-12T07:46:27.675Z,925.02
2017-04-12T07:47:42.122Z,925.04
2017-04-12T07:48:54.952Z,925
2017-04-12T07:50:08.885Z,925.02
2017-04-12T07:51:28.123Z,925.01
2017-04-12T07:52:42.002Z,924.98
2017-04-12T07:54:00.645Z,925.03
2017-04-12T07:55:15.129Z,925.01
2017-04-12T07:56:34.885Z,925.02
2017-04-12T07:57:48.774Z,925.03
2017-04-12T07:59:04.447Z,925.07
2017-04-12T08:00:18.164Z,925.07
2017-04-12T08:01:35.025Z,925.16
2017-04-12T08:02:48.502Z,925.17
2017-04-12T08:04:05.806Z,925.27
2017-04-12T08:05:19.678Z,925.3
2017-04-12T08:06:45.234Z,925.31
2017-04-12T08:08:02.005Z,925.3
2017-04-12T08:09:17.963Z,925.34
2017-04-12T08:10:37.573Z,925.37
2017-04-12T08:11:50.176Z,925.35
2017-04-12T08:13:04.100Z,925.38
2017-04-12T08:14:20.756Z,925.35
2017-04-12T08:15:34.361Z,925.37
2017-04-12T08:16:51.096Z,925.4
2017-04-12T08:18:04.915Z,925.38
2017-04-12T08:19:17.720Z,925.37
2017-04-12T08:20:34.559Z,925.37
2017-04-12T08:21:56.630Z,925.43
2017-04-12T08:23:11.092Z,925.48
2017-04-12T08:24:32.608Z,925.47
2017-04-12T08:25:45.248Z,925.5
2017-04-12T08:27:04.939Z,925.52
2017-04-12T08:28:21.185Z,925.53
2017-04-12T08:29:34.457Z,925.58
2017-04-12T08:30:48.290Z,925.6
2017-04-12T08:32:02.728Z,925.65
2017-04-12T08:33:16.654Z,925.6
2017-04-12T08:34:30.520Z,925.65
2017-04-12T08:35:53.181Z,925.61
2017-04-12T08:37:06.992Z,925.64
2017-04-12T08:38:23.809Z,925.67
2017-04-12T08:39:37.030Z,925.6
2017-04-12T08:40:56.651Z,925.7
2017-04-12T08:42:11.118Z,925.71
2017-04-12T08:43:24.949Z,925.67
2017-04-12T08:44:38.766Z,925.72
2017-04-12T08:45:54.928Z,925.75
2017-04-12T08:47:09.254Z,925.73
2017-04-12T08:48:22.505Z,925.74
2017-04-12T08:49:36.460Z,925.76
2017-04-12T08:50:56.193Z,925.71
2017-04-12T08:52:10.380Z,925.86
2017-04-12T08:53:23.670Z,925.87
2017-04-12T08:54:39.904Z,925.86
2017-04-12T08:55:53.768Z,925.89
2017-04-12T08:57:07.607Z,925.89
2017-04-12T08:58:26.244Z,925.92
2017-04-12T08:59:40.067Z,925.93
2017-04-12T09:00:53.899Z,925.92
2017-04-12T09:02:10.653Z,925.9
2017-04-12T09:03:23.283Z,925.95
2017-04-12T09:04:40.551Z,925.95
2017-04-12T09:05:56.811Z,926
2017-04-12T09:07:09.579Z,925.96
2017-04-12T09:08:24.615Z,925.98
2017-04-12T09:09:37.721Z,926.01
2017-04-12T09:10:50.461Z,925.93
2017-04-12T09:12:07.891Z,925.97
2017-04-12T09:13:27.636Z,925.95
2017-04-12T09:14:42.611Z,925.98
2017-04-12T09:15:56.453Z,926.02
2017-04-12T09:17:13.102Z,926
2017-04-12T09:18:30.475Z,926.07
2017-04-12T09:19:50.816Z,926.09
2017-04-12T09:21:07.466Z,926.13
2017-04-12T09:22:27.403Z,926.22
2017-04-12T09:23:46.503Z,926.31
2017-04-12T09:25:02.828Z,926.32
2017-04-12T09:26:19.579Z,926.35
2017-04-12T09:27:33.467Z,926.37
2017-04-12T09:28:50.879Z,926.45
2017-04-12T09:30:05.335Z,926.52
2017-04-12T09:31:19.749Z,926.64
2017-04-12T09:32:33.566Z,926.69
2017-04-12T09:33:59.170Z,926.69
2017-04-12T09:35:18.193Z,926.55
2017-04-12T09:36:38.507Z,926.64
2017-04-12T09:37:51.226Z,926.73
2017-04-12T09:39:05.061Z,926.86
2017-04-12T09:40:17.162Z,926.84
2017-04-12T09:41:36.751Z,926.94
2017-04-12T09:42:58.700Z,926.88
2017-04-12T09:44:12.565Z,926.83
2017-04-12T09:45:25.167Z,926.89
2017-04-12T09:46:39.047Z,926.98
2017-04-12T09:47:51.984Z,926.98
2017-04-12T09:49:04.191Z,927.09
2017-04-12T09:50:26.885Z,927.07
2017-04-12T09:51:44.215Z,927.03
2017-04-12T09:52:57.485Z,926.94
2017-04-12T09:54:14.780Z,927.13
2017-04-12T09:55:31.513Z,927.13
2017-04-12T09:56:51.783Z,927.13
2017-04-12T09:58:05.684Z,927.15
2017-04-12T09:59:18.778Z,927.19
2017-04-12T10:00:35.034Z,927.18
2017-04-12T10:01:48.339Z,927.23
2017-04-12T10:03:02.213Z,927.26
2017-04-12T10:04:18.983Z,927.24
2017-04-12T10:05:35.310Z,927.28
2017-04-12T10:06:49.153Z,927.24
2017-04-12T10:08:05.468Z,927.28
2017-04-12T10:09:21.223Z,927.26
2017-04-12T10:10:35.195Z,927.28
2017-04-12T10:11:49.012Z,927.26
2017-04-12T10:13:08.217Z,927.32
2017-04-12T10:14:24.471Z,927.16
2017-04-12T10:15:41.186Z,927.3
2017-04-12T10:16:55.017Z,927.3
2017-04-12T10:18:11.216Z,927.37
2017-04-12T10:19:24.439Z,927.38
2017-04-12T10:20:43.133Z,927.24
2017-04-12T10:21:56.925Z,927.3
2017-04-12T10:23:10.665Z,927.32
2017-04-12T10:24:27.430Z,927.42
2017-04-12T10:25:40.757Z,927.35
2017-04-12T10:26:55.190Z,927.42
2017-04-12T10:28:09.656Z,927.5
2017-04-12T10:29:26.404Z,927.46
2017-04-12T10:30:42.682Z,927.44
2017-04-12T10:31:58.978Z,927.55
2017-04-12T10:33:12.233Z,927.57
2017-04-12T10:34:26.664Z,927.54
2017-04-12T10:35:39.839Z,927.53
2017-04-12T10:36:52.483Z,927.59
2017-04-12T10:38:06.926Z,927.51
2017-04-12T10:39:24.308Z,927.63
2017-04-12T10:40:37.541Z,927.64
2017-04-12T10:41:51.372Z,927.65
2017-04-12T10:43:04.417Z,927.64
2017-04-12T10:44:32.319Z,927.65
2017-04-12T10:45:46.101Z,927.68
2017-04-12T10:46:59.419Z,927.57
2017-04-12T10:48:18.653Z,927.63
2017-04-12T10:49:38.380Z,927.71
2017-04-12T10:50:51.541Z,927.72
2017-04-12T10:52:04.229Z,927.85
2017-04-12T10:53:26.901Z,927.91
2017-04-12T10:54:38.980Z,927.84
2017-04-12T10:55:51.230Z,927.79
2017-04-12T10:57:07.000Z,927.8
2017-04-12T10:58:20.356Z,927.95
2017-04-12T10:59:36.492Z,927.93
2017-04-12T11:00:52.031Z,927.93
2017-04-12T11:02:14.139Z,927.97
2017-04-12T11:03:26.852Z,927.91
2017-04-12T11:04:39.958Z,927.95
2017-04-12T11:05:59.679Z,927.94
2017-04-12T11:07:13.074Z,927.96
2017-04-12T11:08:27.480Z,927.95
2017-04-12T11:09:47.824Z,928.01
2017-04-12T11:11:04.090Z,928.04
2017-04-12T11:12:20.363Z,928.04
2017-04-12T11:13:34.175Z,928.12
2017-04-12T11:14:50.423Z,928.06
2017-04-12T11:16:04.308Z,928.14
2017-04-12T11:17:17.540Z,928.19
2017-04-12T11:18:30.106Z,928.13
2017-04-12T11:19:43.437Z,928.15
2017-04-12T11:20:57.886Z,928.15
2017-04-12T11:22:22.864Z,928.11
2017-04-12T11:23:45.036Z,928.24
2017-04-12T11:25:07.738Z,928.32
2017-04-12T11:26:23.916Z,928.26
2017-04-12T11:27:37.757Z,928.32
2017-04-12T11:28:52.800Z,928.32
2017-04-12T11:30:11.719Z,928.39
2017-04-12T11:31:25.054Z,928.35
2017-04-12T11:32:41.142Z,928.35
2017-04-12T11:33:59.212Z,928.39
2017-04-12T11:35:13.130Z,928.35
2017-04-12T11:36:38.168Z,928.45
2017-04-12T11:37:54.976Z,928.4
2017-04-12T11:39:08.284Z,928.19
2017-04-12T11:40:24.542Z,928.46
2017-04-12T11:41:36.226Z,928.49
2017-04-12T11:42:49.384Z,928.51
2017-04-12T11:44:05.574Z,928.48
2017-04-12T11:45:19.424Z,928.48
2017-04-12T11:46:33.917Z,928.45
2017-04-12T11:47:51.279Z,928.45
2017-04-12T11:49:04.275Z,928.47
2017-04-12T11:50:18.115Z,928.49
2017-04-12T11:51:33.743Z,928.58
2017-04-12T11:52:49.998Z,928.51
2017-04-12T11:54:03.227Z,928.53
2017-04-12T11:55:19.888Z,928.52
2017-04-12T11:56:36.657Z,928.56
2017-04-12T11:57:53.419Z,928.54
2017-04-12T11:59:10.784Z,928.6
2017-04-12T12:00:29.992Z,928.6
2017-04-12T12:01:44.373Z,928.54
2017-04-12T12:02:57.692Z,928.55
2017-04-12T12:04:20.362Z,928.58
2017-04-12T12:05:34.267Z,928.61
2017-04-12T12:06:50.525Z,928.56
2017-04-12T12:08:07.280Z,928.58
2017-04-12T12:09:19.449Z,928.61
2017-04-12T12:10:36.250Z,928.5
2017-04-12T12:11:50.119Z,928.53
2017-04-12T12:13:03.403Z,928.59
2017-04-12T12:14:17.840Z,928.61
2017-04-12T12:15:31.688Z,928.54
2017-04-12T12:16:45.037Z,928.59
2017-04-12T12:18:04.644Z,928.66
2017-04-12T12:19:20.390Z,928.69
2017-04-12T12:20:34.213Z,928.67
2017-04-12T12:21:48.045Z,928.61
2017-04-12T12:23:04.255Z,928.7
2017-04-12T12:24:23.995Z,928.67
2017-04-12T12:25:37.287Z,928.65
2017-04-12T12:26:54.666Z,928.7
2017-04-12T12:28:13.588Z,928.68
2017-04-12T12:29:26.212Z,928.68
2017-04-12T12:30:40.070Z,928.74
2017-04-12T12:31:53.903Z,928.68
2017-04-12T12:33:07.158Z,928.71
2017-04-12T12:34:24.509Z,928.75
2017-04-12T12:35:37.785Z,928.77
2017-04-12T12:36:54.438Z,928.8
2017-04-12T12:38:06.681Z,928.81
2017-04-12T12:39:19.958Z,928.8
2017-04-12T12:40:36.819Z,928.83
2017-04-12T12:41:51.232Z,928.7
2017-04-12T12:43:10.968Z,928.82
2017-04-12T12:44:24.792Z,928.81
2017-04-12T12:45:40.954Z,928.82
2017-04-12T12:46:58.362Z,928.81
2017-04-12T12:48:15.718Z,928.84
2017-04-12T12:49:30.159Z,928.8
2017-04-12T12:50:49.425Z,928.79
2017-04-12T12:52:05.540Z,928.82
2017-04-12T12:53:19.388Z,928.88
2017-04-12T12:54:37.882Z,928.82
2017-04-12T12:55:54.628Z,928.85
2017-04-12T12:57:09.050Z,928.82
2017-04-12T12:58:22.924Z,928.78
2017-04-12T12:59:45.635Z,928.87
2017-04-12T13:01:03.024Z,928.78
2017-04-12T13:02:19.224Z,928.83
2017-04-12T13:03:33.133Z,928.84
2017-04-12T13:04:53.465Z,928.9
2017-04-12T13:06:10.307Z,928.86
2017-04-12T13:07:24.732Z,928.88
2017-04-12T13:08:37.417Z,928.82
2017-04-12T13:09:50.117Z,928.86
2017-04-12T13:11:03.836Z,928.85
2017-04-12T13:12:17.661Z,928.88
2017-04-12T13:13:37.412Z,928.85
2017-04-12T13:14:53.697Z,928.85
2017-04-12T13:16:07.664Z,928.79
2017-04-12T13:17:22.099Z,928.79
2017-04-12T13:18:35.995Z,928.81
2017-04-12T13:19:49.870Z,928.81
2017-04-12T13:21:03.206Z,928.73
2017-04-12T13:22:22.946Z,928.76
2017-04-12T13:23:37.428Z,928.78
2017-04-12T13:24:54.832Z,928.82
2017-04-12T13:26:12.291Z,928.76
2017-04-12T13:27:34.938Z,928.8
2017-04-12T13:28:51.121Z,928.85
2017-04-12T13:30:04.358Z,928.85
2017-04-12T13:31:18.851Z,928.83
2017-04-12T13:32:32.192Z,928.82
2017-04-12T13:33:49.613Z,928.82
2017-04-12T13:35:02.851Z,928.84
2017-04-12T13:36:16.730Z,928.83
2017-04-12T13:37:30.556Z,928.78
2017-04-12T13:38:47.343Z,928.75
2017-04-12T13:40:04.095Z,928.69
2017-04-12T13:41:26.787Z,928.67
2017-04-12T13:42:40.083Z,928.72
2017-04-12T13:43:53.971Z,928.71
2017-04-12T13:45:14.362Z,928.77
2017-04-12T13:46:33.546Z,928.75
2017-04-12T13:47:50.320Z,928.84
2017-04-12T13:49:10.066Z,928.69
2017-04-12T13:50:24.526Z,928.81
2017-04-12T13:51:43.671Z,928.85
2017-04-12T13:52:58.211Z,928.75
2017-04-12T13:54:14.977Z,928.89
2017-04-12T13:55:31.201Z,928.86
2017-04-12T13:56:53.243Z,928.83
2017-04-12T13:58:06.644Z,928.79
2017-04-12T13:59:19.925Z,928.82
2017-04-12T14:00:33.822Z,928.82
2017-04-12T14:01:47.190Z,928.81
2017-04-12T14:03:01.665Z,928.82
2017-04-12T14:04:16.694Z,928.84
2017-04-12T14:05:36.405Z,928.84
2017-04-12T14:06:50.844Z,928.83
2017-04-12T14:08:04.774Z,928.7
2017-04-12T14:09:27.494Z,928.71
2017-04-12T14:10:47.232Z,928.69
2017-04-12T14:12:06.990Z,928.69
2017-04-12T14:13:20.851Z,928.63
2017-04-12T14:14:38.167Z,928.75
2017-04-12T14:15:52.051Z,928.72
2017-04-12T14:17:05.396Z,928.69
2017-04-12T14:18:25.185Z,928.66
2017-04-12T14:19:41.974Z,928.71
2017-04-12T14:21:02.301Z,928.75
2017-04-12T14:22:15.061Z,928.7
2017-04-12T14:23:28.301Z,928.71
2017-04-12T14:24:42.178Z,928.65
2017-04-12T14:25:58.448Z,928.75
2017-04-12T14:27:15.198Z,928.71
2017-04-12T14:28:31.922Z,928.68
2017-04-12T14:29:48.680Z,928.74
2017-04-12T14:31:05.497Z,928.7
2017-04-12T14:32:24.747Z,928.7
2017-04-12T14:33:38.597Z,928.66
2017-04-12T14:34:53.037Z,928.77
2017-04-12T14:36:09.783Z,928.72
2017-04-12T14:37:23.608Z,928.62
2017-04-12T14:38:38.044Z,928.76
2017-04-12T14:39:58.303Z,928.82
2017-04-12T14:41:12.094Z,928.6
2017-04-12T14:42:31.793Z,928.69
2017-04-12T14:43:49.138Z,928.68
2017-04-12T14:45:02.519Z,928.73
2017-04-12T14:46:15.726Z,928.7
2017-04-12T14:47:29.565Z,928.71
2017-04-12T14:48:49.884Z,928.7
2017-04-12T14:50:09.674Z,928.69
2017-04-12T14:51:29.405Z,928.66
2017-04-12T14:52:43.251Z,928.66
2017-04-12T14:54:05.882Z,928.55
2017-04-12T14:55:19.722Z,928.65
2017-04-12T14:56:36.017Z,928.67
2017-04-12T14:57:49.373Z,928.65
2017-04-12T14:59:06.198Z,928.62
2017-04-12T15:00:20.034Z,928.65
2017-04-12T15:01:39.702Z,928.68
2017-04-12T15:02:53.024Z,928.46
2017-04-12T15:04:07.462Z,928.65
2017-04-12T15:05:21.310Z,928.59
2017-04-12T15:06:35.750Z,928.44
2017-04-12T15:08:00.236Z,928.59
2017-04-12T15:09:13.467Z,928.45
2017-04-12T15:10:29.725Z,928.47
2017-04-12T15:11:43.548Z,928.51
2017-04-12T15:13:03.325Z,928.46
2017-04-12T15:14:28.318Z,928.26
2017-04-12T15:15:47.581Z,928.41
2017-04-12T15:17:04.246Z,928.35
2017-04-12T15:18:18.092Z,928.41
2017-04-12T15:19:31.338Z,928.35
2017-04-12T15:20:45.282Z,928.39
2017-04-12T15:22:04.968Z,928.34
2017-04-12T15:23:17.070Z,928.37
2017-04-12T15:24:30.878Z,928.36
2017-04-12T15:25:47.671Z,928.4
2017-04-12T15:27:07.458Z,928.26
2017-04-12T15:28:20.892Z,928.26
2017-04-12T15:29:34.790Z,928.32
2017-04-12T15:30:55.131Z,928.33
2017-04-12T15:32:08.859Z,928.27
2017-04-12T15:33:23.298Z,928.2
2017-04-12T15:34:37.141Z,928.27
2017-04-12T15:35:54.038Z,928.08
2017-04-12T15:37:07.908Z,928.28
2017-04-12T15:38:28.260Z,928.15
2017-04-12T15:39:42.107Z,928.18
2017-04-12T15:40:56.544Z,928.18
2017-04-12T15:42:10.351Z,928.17
2017-04-12T15:43:24.822Z,928.01
2017-04-12T15:44:39.238Z,928.16
2017-04-12T15:45:55.990Z,928.02
2017-04-12T15:47:09.269Z,928.17
2017-04-12T15:48:23.094Z,928.15
2017-04-12T15:49:36.921Z,928.05
2017-04-12T15:50:51.314Z,927.86
2017-04-12T15:52:08.762Z,928.01
2017-04-12T15:53:24.937Z,927.98
2017-04-12T15:54:47.627Z,927.95